createdAt,value
2022-08-05T00:00:26.130Z,27.90
2022-08-05T00:02:54.796Z,27.90
2022-08-05T00:06:01.720Z,27.90
2022-08-05T00:08:35.163Z,27.80
2022-08-05T00:11:01.690Z,27.80
2022-08-05T00:13:39.575Z,27.80
2022-08-05T00:16:10.925Z,27.80
2022-08-05T00:18:42.418Z,27.70
2022-08-05T00:21:14.565Z,27.70
2022-08-05T00:23:45.973Z,27.70
2022-08-05T00:26:17.936Z,27.70
2022-08-05T00:28:49.276Z,27.70
2022-08-05T00:31:41.495Z,27.60
2022-08-05T00:34:56.489Z,27.60
2022-08-05T00:37:10.519Z,27.70
2022-08-05T00:39:57.100Z,27.60
2022-08-05T00:42:33.238Z,27.60
2022-08-05T00:45:03.860Z,27.60
2022-08-05T00:47:56.601Z,27.50
2022-08-05T00:50:20.875Z,27.50
2022-08-05T00:52:49.509Z,27.50
2022-08-05T00:55:18.915Z,27.50
2022-08-05T00:57:55.508Z,27.50
2022-08-05T01:00:29.331Z,27.40
2022-08-05T01:02:59.852Z,27.40
2022-08-05T01:05:28.888Z,27.40
2022-08-05T01:08:40.070Z,27.30
2022-08-05T01:10:52.879Z,27.30
2022-08-05T01:13:27.385Z,27.30
2022-08-05T01:16:26.357Z,27.30
2022-08-05T01:19:01.681Z,27.20
2022-08-05T01:21:58.376Z,27.20
2022-08-05T01:24:49.323Z,27.20
2022-08-05T01:27:33.020Z,27.10
2022-08-05T01:30:05.610Z,27.10
2022-08-05T01:32:48.563Z,27.10
2022-08-05T01:35:52.081Z,27.10
2022-08-05T01:38:09.873Z,27.00
2022-08-05T01:40:55.454Z,27.00
2022-08-05T01:43:25.162Z,26.90
2022-08-05T01:45:56.999Z,26.90
2022-08-05T01:48:27.308Z,26.90
2022-08-05T01:50:57.998Z,26.80
2022-08-05T01:53:55.034Z,26.80
2022-08-05T01:58:29.709Z,26.70
2022-08-05T01:59:12.899Z,26.70
2022-08-05T02:01:44.769Z,26.70
2022-08-05T02:04:17.862Z,26.60
2022-08-05T02:06:46.375Z,26.60
2022-08-05T02:09:16.577Z,26.60
2022-08-05T02:11:54.512Z,26.50
2022-08-05T02:14:32.065Z,26.50
2022-08-05T02:17:08.957Z,26.40
2022-08-05T02:20:02.120Z,26.40
2022-08-05T02:22:34.449Z,26.40
2022-08-05T02:25:06.326Z,26.30
2022-08-05T02:27:59.036Z,26.30
2022-08-05T02:30:36.623Z,26.20
2022-08-05T02:33:09.052Z,26.10
2022-08-05T02:35:50.976Z,26.10
2022-08-05T02:38:35.374Z,26.10
2022-08-05T02:41:06.463Z,26.00
2022-08-05T02:44:02.291Z,26.00
2022-08-05T02:46:35.277Z,25.90
2022-08-05T02:49:07.186Z,25.90
2022-08-05T02:52:02.944Z,25.80
2022-08-05T02:54:35.814Z,25.70
2022-08-05T02:57:10.346Z,25.80
2022-08-05T02:59:57.651Z,25.70
2022-08-05T03:02:32.358Z,25.60
2022-08-05T03:05:03.304Z,25.60
2022-08-05T03:08:01.396Z,25.60
2022-08-05T03:10:24.857Z,25.50
2022-08-05T03:12:54.998Z,25.50
2022-08-05T03:15:24.296Z,25.50
2022-08-05T03:17:55.647Z,25.40
2022-08-05T03:20:26.460Z,25.40
2022-08-05T03:22:58.041Z,25.40
2022-08-05T03:25:32.442Z,25.40
2022-08-05T03:28:18.819Z,25.30
2022-08-05T03:30:50.884Z,25.30
2022-08-05T03:33:19.661Z,25.30
2022-08-05T03:35:50.373Z,25.30
2022-08-05T03:40:48.792Z,25.20
2022-08-05T03:44:09.570Z,25.20
2022-08-05T03:46:09.802Z,25.20
2022-08-05T03:48:38.717Z,25.20
2022-08-05T03:52:39.131Z,25.20
2022-08-05T03:56:01.121Z,25.20
2022-08-05T03:57:00.119Z,25.10
2022-08-05T03:59:47.516Z,25.20
2022-08-05T04:02:38.374Z,25.20
2022-08-05T04:05:10.408Z,25.10
2022-08-05T04:07:57.375Z,25.20
2022-08-05T04:10:32.164Z,25.20
2022-08-05T04:13:06.735Z,25.20
2022-08-05T04:15:36.131Z,25.20
2022-08-05T04:18:06.847Z,25.20
2022-08-05T04:20:36.231Z,25.20
2022-08-05T04:23:06.245Z,25.30
2022-08-05T04:25:57.805Z,25.20
2022-08-05T04:28:31.629Z,25.20
2022-08-05T04:31:01.578Z,25.20
2022-08-05T04:34:18.609Z,25.30
2022-08-05T04:36:46.304Z,25.30
2022-08-05T04:39:11.108Z,25.30
2022-08-05T04:41:41.431Z,25.40
2022-08-05T04:44:10.067Z,25.40
2022-08-05T04:46:39.289Z,25.40
2022-08-05T04:49:12.395Z,25.40
2022-08-05T04:51:43.987Z,25.40
2022-08-05T04:54:14.912Z,25.50
2022-08-05T04:56:43.615Z,25.50
2022-08-05T04:59:21.721Z,25.60
2022-08-05T05:02:08.263Z,25.60
2022-08-05T05:04:44.082Z,25.70
2022-08-05T05:07:17.144Z,25.70
2022-08-05T05:09:47.488Z,25.70
2022-08-05T05:12:15.910Z,25.80
2022-08-05T05:14:49.431Z,25.80
2022-08-05T05:17:23.758Z,25.80
2022-08-05T05:19:56.484Z,25.90
2022-08-05T05:22:26.557Z,25.90
2022-08-05T05:25:00.104Z,26.00
2022-08-05T05:27:41.791Z,26.10
2022-08-05T05:30:30.627Z,26.10
2022-08-05T05:33:08.879Z,26.10
2022-08-05T05:35:45.282Z,26.20
2022-08-05T05:38:14.190Z,26.30
2022-08-05T05:40:49.846Z,26.30
2022-08-05T05:43:22.406Z,26.40
2022-08-05T05:46:15.692Z,26.50
2022-08-05T05:48:45.949Z,26.60
2022-08-05T05:51:20.381Z,26.70
2022-08-05T05:53:57.960Z,26.70
2022-08-05T05:56:32.407Z,26.80
2022-08-05T05:59:05.060Z,26.90
2022-08-05T06:01:38.219Z,27.00
2022-08-05T06:04:12.182Z,27.10
2022-08-05T06:11:24.949Z,27.20
2022-08-05T06:18:07.752Z,27.50
2022-08-05T06:20:36.102Z,27.60
2022-08-05T06:23:04.437Z,27.70
2022-08-05T06:26:12.160Z,27.70
2022-08-05T06:28:22.057Z,27.80
2022-08-05T06:30:52.082Z,27.90
2022-08-05T06:33:33.367Z,28.00
2022-08-05T06:36:10.486Z,28.00
2022-08-05T06:38:38.874Z,28.10
2022-08-05T06:41:15.391Z,28.20
2022-08-05T06:43:57.392Z,28.30
2022-08-05T06:46:30.202Z,28.40
2022-08-05T06:49:01.715Z,28.50
2022-08-05T06:51:31.446Z,28.60
2022-08-05T06:54:02.276Z,28.60
2022-08-05T06:56:34.795Z,28.70
2022-08-05T06:59:08.326Z,28.80
2022-08-05T07:01:40.766Z,28.90
2022-08-05T07:04:14.072Z,28.90
2022-08-05T07:06:42.563Z,29.00
2022-08-05T07:09:10.904Z,29.10
2022-08-05T07:11:39.939Z,29.10
2022-08-05T07:14:29.284Z,29.20
2022-08-05T07:18:01.761Z,29.20
2022-08-05T07:22:42.776Z,29.40
2022-08-05T07:25:53.811Z,29.50
2022-08-05T07:28:07.286Z,29.50
2022-08-05T07:30:40.191Z,29.60
2022-08-05T07:33:16.102Z,29.60
2022-08-05T07:36:04.594Z,29.70
2022-08-05T07:38:43.086Z,29.80
2022-08-05T07:42:12.940Z,29.80
2022-08-05T07:44:18.583Z,29.80
2022-08-05T07:46:48.469Z,29.90
2022-08-05T07:49:18.474Z,30.00
2022-08-05T07:51:53.575Z,30.00
2022-08-05T07:54:30.866Z,30.00
2022-08-05T07:57:22.695Z,30.10
2022-08-05T07:59:50.686Z,30.10
2022-08-05T08:02:19.572Z,30.20
2022-08-05T08:04:55.609Z,30.20
2022-08-05T08:07:28.414Z,30.30
2022-08-05T08:10:04.378Z,30.30
2022-08-05T08:12:48.851Z,30.30
2022-08-05T08:16:33.538Z,30.40
2022-08-05T08:18:14.263Z,30.40
2022-08-05T08:21:02.179Z,30.50
2022-08-05T08:24:02.488Z,30.50
2022-08-05T08:26:26.976Z,30.50
2022-08-05T08:29:22.266Z,30.60
2022-08-05T08:31:48.348Z,30.60
2022-08-05T08:34:16.938Z,30.70
2022-08-05T08:36:54.763Z,30.70
2022-08-05T08:39:26.540Z,30.80
2022-08-05T08:41:58.750Z,30.90
2022-08-05T08:45:21.422Z,30.90
2022-08-05T08:52:01.753Z,31.00
2022-08-05T08:53:54.822Z,31.00
2022-08-05T08:56:26.981Z,31.10
2022-08-05T08:58:59.316Z,31.10
2022-08-05T09:01:29.550Z,31.10
2022-08-05T09:03:58.623Z,31.20
2022-08-05T09:06:29.572Z,31.20
2022-08-05T09:08:59.785Z,31.20
2022-08-05T09:11:53.444Z,31.30
2022-08-05T09:14:56.769Z,31.40
2022-08-05T09:17:09.522Z,31.40
2022-08-05T09:20:02.251Z,31.50
2022-08-05T09:23:18.967Z,31.60
2022-08-05T09:26:02.157Z,31.70
2022-08-05T09:28:35.070Z,31.70
2022-08-05T09:31:22.459Z,31.80
2022-08-05T09:33:56.692Z,31.80
2022-08-05T09:36:27.688Z,31.80
2022-08-05T09:39:18.514Z,31.90
2022-08-05T09:41:58.488Z,32.00
2022-08-05T09:44:50.424Z,32.00
2022-08-05T09:47:21.336Z,32.10
2022-08-05T09:50:00.951Z,32.20
2022-08-05T09:52:33.709Z,32.20
2022-08-05T09:55:06.334Z,32.20
2022-08-05T09:57:39.449Z,32.30
2022-08-05T10:00:13.041Z,32.40
2022-08-05T10:02:43.973Z,32.50
2022-08-05T10:05:14.774Z,32.60
2022-08-05T10:08:10.421Z,32.60
2022-08-05T10:10:40.830Z,32.70
2022-08-05T10:13:10.157Z,32.80
2022-08-05T10:15:41.474Z,32.90
2022-08-05T10:18:16.777Z,32.90
2022-08-05T10:20:48.432Z,32.80
2022-08-05T10:23:34.126Z,32.80
2022-08-05T10:26:13.975Z,32.80
2022-08-05T10:28:44.901Z,32.90
2022-08-05T10:32:52.562Z,32.90
2022-08-05T10:34:07.882Z,32.90
2022-08-05T10:36:38.427Z,33.00
2022-08-05T10:39:15.287Z,33.10
2022-08-05T10:42:01.340Z,33.20
2022-08-05T10:44:33.108Z,33.20
2022-08-05T10:47:26.817Z,33.20
2022-08-05T10:50:32.838Z,33.20
2022-08-05T10:52:58.472Z,33.20
2022-08-05T10:55:28.409Z,33.10
2022-08-05T10:58:11.623Z,33.20
2022-08-05T11:00:48.530Z,33.30
2022-08-05T11:03:27.119Z,33.30
2022-08-05T11:06:15.813Z,33.40
2022-08-05T11:09:24.397Z,33.50
2022-08-05T11:12:50.860Z,33.60
2022-08-05T11:16:00.779Z,33.60
2022-08-05T11:18:29.949Z,33.60
2022-08-05T11:20:59.221Z,33.50
2022-08-05T11:23:33.378Z,33.50
2022-08-05T11:26:29.248Z,33.50
2022-08-05T11:29:13.089Z,33.60
2022-08-05T11:32:14.718Z,33.60
2022-08-05T11:34:47.614Z,33.70
2022-08-05T11:38:28.066Z,33.80
2022-08-05T11:41:34.734Z,33.90
2022-08-05T11:44:05.628Z,34.00
2022-08-05T11:47:10.196Z,34.10
2022-08-05T11:49:27.054Z,34.10
2022-08-05T11:51:57.922Z,34.30
2022-08-05T11:54:33.400Z,34.30
2022-08-05T11:57:08.520Z,34.30
2022-08-05T11:59:52.553Z,34.30
2022-08-05T12:02:30.402Z,34.40
2022-08-05T12:05:01.447Z,34.40
2022-08-05T12:08:08.420Z,34.50
2022-08-05T12:10:38.621Z,34.50
2022-08-05T12:13:16.514Z,34.50
2022-08-05T12:15:49.698Z,34.60
2022-08-05T12:18:32.466Z,34.50
2022-08-05T12:21:11.789Z,34.60
2022-08-05T12:23:47.739Z,34.60
2022-08-05T12:26:17.913Z,34.60
2022-08-05T12:28:47.218Z,34.60
2022-08-05T12:31:23.198Z,34.60
2022-08-05T12:34:01.528Z,34.50
2022-08-05T12:36:32.363Z,34.40
2022-08-05T12:39:02.993Z,34.40
2022-08-05T12:41:36.281Z,34.40
2022-08-05T12:44:14.611Z,34.50
2022-08-05T12:47:02.708Z,34.50
2022-08-05T12:50:05.336Z,34.60
2022-08-05T12:52:37.773Z,34.60
2022-08-05T12:55:22.689Z,34.60
2022-08-05T12:58:51.066Z,34.60
2022-08-05T13:02:00.257Z,34.60
2022-08-05T13:03:39.006Z,34.70
2022-08-05T13:06:16.083Z,34.70
2022-08-05T13:08:52.266Z,34.80
2022-08-05T13:12:00.019Z,34.80
2022-08-05T13:14:35.900Z,34.90
2022-08-05T13:17:10.571Z,35.00
2022-08-05T13:19:52.120Z,35.00
2022-08-05T13:22:29.201Z,35.10
2022-08-05T13:25:00.686Z,35.20
2022-08-05T13:27:38.534Z,35.20
2022-08-05T13:30:34.285Z,35.30
2022-08-05T13:33:01.088Z,35.30
2022-08-05T13:35:43.179Z,35.30
2022-08-05T13:38:28.034Z,35.30
2022-08-05T13:41:05.171Z,35.40
2022-08-05T13:43:43.603Z,35.40
2022-08-05T13:46:16.324Z,35.40
2022-08-05T13:49:01.032Z,35.50
2022-08-05T13:51:40.167Z,35.50
2022-08-05T13:54:12.042Z,35.50
2022-08-05T13:56:44.885Z,35.50
2022-08-05T13:59:23.827Z,35.50
2022-08-05T14:01:57.573Z,35.60
2022-08-05T14:04:51.058Z,35.60
2022-08-05T14:07:25.411Z,35.60
2022-08-05T14:10:18.499Z,35.70
2022-08-05T14:12:48.668Z,35.70
2022-08-05T14:16:07.070Z,35.70
2022-08-05T14:18:15.262Z,35.80
2022-08-05T14:20:48.160Z,35.80
2022-08-05T14:23:25.145Z,35.80
2022-08-05T14:25:57.889Z,36.00
2022-08-05T14:28:28.196Z,35.90
2022-08-05T14:30:58.920Z,35.80
2022-08-05T14:33:27.448Z,36.00
2022-08-05T14:36:15.822Z,35.90
2022-08-05T14:38:50.226Z,36.10
2022-08-05T14:41:19.396Z,36.20
2022-08-05T14:44:00.011Z,36.50
2022-08-05T14:46:35.616Z,36.50
2022-08-05T14:49:07.231Z,36.40
2022-08-05T14:51:37.404Z,36.30
2022-08-05T14:54:27.724Z,36.30
2022-08-05T14:56:55.197Z,36.20
2022-08-05T14:59:23.809Z,36.20
2022-08-05T15:01:53.989Z,36.20
2022-08-05T15:04:23.278Z,36.10
2022-08-05T15:06:55.849Z,36.10
2022-08-05T15:09:52.026Z,36.00
2022-08-05T15:12:16.574Z,36.00
2022-08-05T15:14:50.345Z,35.90
2022-08-05T15:17:46.160Z,36.00
2022-08-05T15:20:17.235Z,36.10
2022-08-05T15:22:54.386Z,36.20
2022-08-05T15:25:41.032Z,36.20
2022-08-05T15:28:13.419Z,36.30
2022-08-05T15:30:43.799Z,36.40
2022-08-05T15:33:56.545Z,36.50
2022-08-05T15:36:05.124Z,36.50
2022-08-05T15:38:40.888Z,36.60
2022-08-05T15:41:22.859Z,36.50
2022-08-05T15:43:54.863Z,36.40
2022-08-05T15:46:24.749Z,36.20
2022-08-05T15:49:01.001Z,36.20
2022-08-05T15:52:04.179Z,36.30
2022-08-05T15:54:19.213Z,36.20
2022-08-05T15:56:47.751Z,36.20
2022-08-05T15:59:21.934Z,36.00
2022-08-05T16:01:53.243Z,35.90
2022-08-05T16:04:25.425Z,35.80
2022-08-05T16:06:55.718Z,35.70
2022-08-05T16:09:24.894Z,35.60
2022-08-05T16:11:53.925Z,35.40
2022-08-05T16:14:22.816Z,35.30
2022-08-05T16:16:51.573Z,35.30
2022-08-05T16:20:03.254Z,35.20
2022-08-05T16:22:10.471Z,35.10
2022-08-05T16:24:51.308Z,35.00
2022-08-05T16:27:46.764Z,34.90
2022-08-05T16:30:23.336Z,34.80
2022-08-05T16:32:58.627Z,34.80
2022-08-05T16:35:32.488Z,34.70
2022-08-05T16:38:24.326Z,34.60
2022-08-05T16:41:00.577Z,34.50
2022-08-05T16:43:31.503Z,34.40
2022-08-05T16:46:07.518Z,34.30
2022-08-05T16:48:49.444Z,34.30
2022-08-05T16:51:17.879Z,34.20
2022-08-05T16:54:06.270Z,34.10
2022-08-05T16:56:37.064Z,34.00
2022-08-05T16:59:10.363Z,34.00
2022-08-05T17:01:53.802Z,33.90
2022-08-05T17:04:26.398Z,33.80
2022-08-05T17:06:56.941Z,33.70
2022-08-05T17:09:30.387Z,33.70
2022-08-05T17:12:08.079Z,33.60
2022-08-05T17:14:40.292Z,33.50
2022-08-05T17:17:15.052Z,33.50
2022-08-05T17:19:46.159Z,33.40
2022-08-05T17:22:24.832Z,33.30
2022-08-05T17:24:57.795Z,33.30
2022-08-05T17:27:34.270Z,33.20
2022-08-05T17:30:03.287Z,33.10
2022-08-05T17:32:33.850Z,33.00
2022-08-05T17:35:04.109Z,33.00
2022-08-05T17:37:40.126Z,32.90
2022-08-05T17:40:14.493Z,32.80
2022-08-05T17:42:50.752Z,32.80
2022-08-05T17:45:21.917Z,32.70
2022-08-05T17:47:54.631Z,32.60
2022-08-05T17:50:28.488Z,32.60
2022-08-05T17:53:00.199Z,32.50
2022-08-05T17:55:37.548Z,32.50
2022-08-05T17:58:09.691Z,32.40
2022-08-05T18:00:40.866Z,32.40
2022-08-05T18:03:24.146Z,32.30
2022-08-05T18:06:06.074Z,32.20
2022-08-05T18:08:44.460Z,32.20
2022-08-05T18:11:24.793Z,32.20
2022-08-05T18:14:04.400Z,32.10
2022-08-05T18:16:49.609Z,32.00
2022-08-05T18:19:22.806Z,32.00
2022-08-05T18:22:08.541Z,32.00
2022-08-05T18:24:40.218Z,31.90
2022-08-05T18:27:12.699Z,31.80
2022-08-05T18:29:53.593Z,31.80
2022-08-05T18:32:28.457Z,31.80
2022-08-05T18:34:59.045Z,31.70
2022-08-05T18:37:33.963Z,31.70
2022-08-05T18:41:50.581Z,31.60
2022-08-05T18:42:59.902Z,31.60
2022-08-05T18:45:41.028Z,31.60
2022-08-05T18:48:11.333Z,31.50
2022-08-05T18:52:02.971Z,31.50
2022-08-05T18:53:51.954Z,31.40
2022-08-05T18:56:21.528Z,31.30
2022-08-05T18:58:54.716Z,31.30
2022-08-05T19:01:47.798Z,31.30
2022-08-05T19:04:24.062Z,31.30
2022-08-05T19:06:53.527Z,31.30
2022-08-05T19:09:22.282Z,31.20
2022-08-05T19:12:00.781Z,31.20
2022-08-05T19:14:44.808Z,31.20
2022-08-05T19:17:20.568Z,31.20
2022-08-05T19:19:50.573Z,31.10
2022-08-05T19:22:27.424Z,31.00
2022-08-05T19:25:00.805Z,31.00
2022-08-05T19:27:31.093Z,31.00
2022-08-05T19:30:03.001Z,30.90
2022-08-05T19:32:32.462Z,30.90
2022-08-05T19:35:06.429Z,30.90
2022-08-05T19:38:04.592Z,30.80
2022-08-05T19:40:24.324Z,30.80
2022-08-05T19:43:04.988Z,30.70
2022-08-05T19:45:36.974Z,30.70
2022-08-05T19:48:06.518Z,30.70
2022-08-05T19:50:36.732Z,30.60
2022-08-05T19:53:10.539Z,30.60
2022-08-05T19:56:15.522Z,30.60
2022-08-05T19:58:29.970Z,30.50
2022-08-05T20:01:00.331Z,30.50
2022-08-05T20:03:40.501Z,30.50
2022-08-05T20:06:15.659Z,30.40
2022-08-05T20:08:59.848Z,30.40
2022-08-05T20:11:34.539Z,30.40
2022-08-05T20:14:12.728Z,30.40
2022-08-05T20:16:44.196Z,30.30
2022-08-05T20:19:12.653Z,30.30
2022-08-05T20:21:43.450Z,30.30
2022-08-05T20:24:14.440Z,30.20
2022-08-05T20:26:44.577Z,30.20
2022-08-05T20:29:26.833Z,30.20
2022-08-05T20:31:58.290Z,30.10
2022-08-05T20:34:28.126Z,30.10
2022-08-05T20:36:56.565Z,30.10
2022-08-05T20:39:25.085Z,30.10
2022-08-05T20:42:04.557Z,30.00
2022-08-05T20:44:37.729Z,30.00
2022-08-05T20:47:08.368Z,30.00
2022-08-05T20:49:39.927Z,30.00
2022-08-05T20:52:10.500Z,30.00
2022-08-05T20:54:59.591Z,29.90
2022-08-05T20:57:42.763Z,29.90
2022-08-05T21:00:41.502Z,29.90
2022-08-05T21:03:08.001Z,29.90
2022-08-05T21:05:53.969Z,29.80
2022-08-05T21:08:28.106Z,29.80
2022-08-05T21:11:10.249Z,29.70
2022-08-05T21:13:55.823Z,29.70
2022-08-05T21:16:29.641Z,29.70
2022-08-05T21:19:01.383Z,29.70
2022-08-05T21:21:39.095Z,29.70
2022-08-05T21:24:12.511Z,29.70
2022-08-05T21:26:44.054Z,29.70
2022-08-05T21:29:16.834Z,29.70
2022-08-05T21:31:45.365Z,29.70
2022-08-05T21:34:18.940Z,29.70
2022-08-05T21:36:49.333Z,29.70
2022-08-05T21:39:26.535Z,29.70
2022-08-05T21:42:02.160Z,29.70
2022-08-05T21:44:31.770Z,29.60
2022-08-05T21:47:00.929Z,29.60
2022-08-05T21:49:56.815Z,29.60
2022-08-05T21:52:27.829Z,29.70
2022-08-05T21:54:57.596Z,29.60
2022-08-05T21:57:34.984Z,29.60
2022-08-05T22:00:06.092Z,29.60
2022-08-05T22:02:35.764Z,29.60
2022-08-05T22:05:09.026Z,29.60
2022-08-05T22:07:39.741Z,29.50
2022-08-05T22:10:26.976Z,29.50
2022-08-05T22:12:57.115Z,29.50
2022-08-05T22:16:04.680Z,29.50
2022-08-05T22:18:15.294Z,29.50
2022-08-05T22:20:51.642Z,29.50
2022-08-05T22:24:00.865Z,29.40
2022-08-05T22:26:40.823Z,29.40
2022-08-05T22:29:09.304Z,29.40
2022-08-05T22:31:44.854Z,29.40
2022-08-05T22:34:25.585Z,29.40
2022-08-05T22:36:59.013Z,29.30
2022-08-05T22:39:33.107Z,29.30
2022-08-05T22:42:09.720Z,29.30
2022-08-05T22:44:42.638Z,29.30
2022-08-05T22:47:29.441Z,29.30
2022-08-05T22:50:17.985Z,29.20
2022-08-05T22:52:49.363Z,29.20
2022-08-05T22:55:21.112Z,29.20
2022-08-05T22:57:50.454Z,29.20
2022-08-05T23:00:20.895Z,29.20
2022-08-05T23:02:50.561Z,29.10
2022-08-05T23:05:22.058Z,29.20
2022-08-05T23:07:52.441Z,29.10
2022-08-05T23:10:23.948Z,29.10
2022-08-05T23:12:54.953Z,29.10
2022-08-05T23:15:27.080Z,29.00
2022-08-05T23:18:01.636Z,29.00
2022-08-05T23:20:32.503Z,29.00
2022-08-05T23:23:03.502Z,28.90
2022-08-05T23:25:53.573Z,28.90
2022-08-05T23:28:22.990Z,28.90
2022-08-05T23:30:53.623Z,28.90
2022-08-05T23:34:02.730Z,28.90
2022-08-05T23:36:13.560Z,28.80
2022-08-05T23:38:43.973Z,28.80
2022-08-05T23:41:13.127Z,28.70
2022-08-05T23:44:05.250Z,28.70
2022-08-05T23:46:30.383Z,28.70
2022-08-05T23:49:01.958Z,28.70
2022-08-05T23:52:02.777Z,28.60
2022-08-05T23:54:38.505Z,28.60
2022-08-05T23:57:08.526Z,28.50
